createdAt,value
2019-05-17T00:00:32.773Z,99.99
2019-05-17T00:01:31.673Z,99.99
2019-05-17T00:02:31.535Z,99.99
2019-05-17T00:03:31.488Z,99.99
2019-05-17T00:04:31.627Z,99.99
2019-05-17T00:05:31.552Z,99.99
2019-05-17T00:06:31.095Z,99.99
2019-05-17T00:07:31.108Z,99.99
2019-05-17T00:08:34.733Z,99.99
2019-05-17T00:09:31.708Z,99.99
2019-05-17T00:10:31.537Z,99.99
2019-05-17T00:12:31.175Z,99.99
2019-05-17T00:13:31.285Z,99.99
2019-05-17T00:14:31.479Z,99.99
2019-05-17T00:16:31.857Z,99.99
2019-05-17T00:19:31.840Z,99.99
2019-05-17T00:20:31.805Z,99.99
2019-05-17T00:21:32.513Z,99.99
2019-05-17T00:22:31.733Z,99.99
2019-05-17T00:23:31.305Z,99.99
2019-05-17T00:26:31.767Z,99.99
2019-05-17T00:27:31.544Z,99.99
2019-05-17T00:32:31.612Z,99.99
2019-05-17T00:33:31.720Z,99.99
2019-05-17T00:34:31.801Z,99.99
2019-05-17T00:36:31.993Z,99.99
2019-05-17T00:37:31.562Z,99.99
2019-05-17T00:38:43.833Z,99.99
2019-05-17T00:39:32.040Z,99.99
2019-05-17T00:40:31.932Z,99.99
2019-05-17T00:41:31.548Z,99.99
2019-05-17T00:43:31.978Z,99.99
2019-05-17T00:44:31.590Z,99.99
2019-05-17T00:45:31.784Z,99.99
2019-05-17T00:46:31.601Z,99.99
2019-05-17T00:47:31.725Z,99.99
2019-05-17T00:48:31.768Z,99.99
2019-05-17T00:49:31.855Z,99.99
2019-05-17T00:50:31.872Z,99.99
2019-05-17T00:51:31.855Z,99.99
2019-05-17T00:54:32.784Z,99.99
2019-05-17T00:55:32.562Z,99.99
2019-05-17T00:56:32.033Z,99.99
2019-05-17T00:57:32.729Z,99.99
2019-05-17T00:58:32.789Z,99.99
2019-05-17T00:59:31.960Z,99.99
2019-05-17T01:00:32.221Z,99.99
2019-05-17T01:01:31.997Z,99.99
2019-05-17T01:02:32.562Z,99.99
2019-05-17T01:03:33.078Z,99.99
2019-05-17T01:04:32.758Z,99.99
2019-05-17T01:08:31.886Z,99.99
2019-05-17T01:09:32.103Z,99.99
2019-05-17T01:10:32.216Z,99.99
2019-05-17T01:11:32.240Z,99.99
2019-05-17T01:12:31.918Z,99.99
2019-05-17T01:14:32.036Z,99.99
2019-05-17T01:15:32.007Z,99.99
2019-05-17T01:16:32.197Z,99.99
2019-05-17T01:17:32.092Z,99.99
2019-05-17T01:18:32.605Z,99.99
2019-05-17T01:19:32.124Z,99.99
2019-05-17T01:23:32.059Z,99.99
2019-05-17T01:24:32.656Z,99.99
2019-05-17T01:25:32.145Z,99.99
2019-05-17T01:26:32.498Z,99.99
2019-05-17T01:27:33.135Z,99.99
2019-05-17T01:29:33.015Z,99.99
2019-05-17T01:30:32.956Z,99.99
2019-05-17T01:32:32.283Z,99.99
2019-05-17T01:33:32.764Z,99.99
2019-05-17T01:34:32.228Z,99.99
2019-05-17T01:36:32.415Z,99.99
2019-05-17T01:37:32.469Z,99.99
2019-05-17T01:38:32.567Z,99.99
2019-05-17T01:39:33.632Z,99.99
2019-05-17T01:40:32.369Z,99.99
2019-05-17T01:42:32.650Z,99.99
2019-05-17T01:44:32.872Z,99.99
2019-05-17T01:45:33.218Z,99.99
2019-05-17T01:46:33.245Z,99.99
2019-05-17T01:48:32.614Z,99.99
2019-05-17T01:49:32.381Z,99.99
2019-05-17T01:50:32.755Z,99.99
2019-05-17T01:51:32.484Z,99.99
2019-05-17T01:52:32.955Z,99.99
2019-05-17T01:53:33.386Z,99.99
2019-05-17T01:54:32.485Z,99.99
2019-05-17T01:55:32.844Z,99.99
2019-05-17T01:56:32.525Z,99.99
2019-05-17T01:57:32.727Z,99.99
2019-05-17T01:58:32.518Z,99.99
2019-05-17T01:59:32.606Z,99.99
2019-05-17T02:01:33.102Z,99.99
2019-05-17T02:02:33.806Z,99.99
2019-05-17T02:03:32.781Z,99.99
2019-05-17T02:04:32.593Z,99.99
2019-05-17T02:05:32.592Z,99.99
2019-05-17T02:06:32.728Z,99.99
2019-05-17T02:07:32.618Z,99.99
2019-05-17T02:08:32.924Z,99.99
2019-05-17T02:10:32.697Z,99.99
2019-05-17T02:11:32.909Z,99.99
2019-05-17T02:12:33.187Z,99.99
2019-05-17T02:13:32.742Z,99.99
2019-05-17T02:14:32.877Z,99.99
2019-05-17T02:15:32.713Z,99.99
2019-05-17T02:16:33.271Z,99.99
2019-05-17T02:17:33.050Z,99.99
2019-05-17T02:18:33.007Z,99.99
2019-05-17T02:19:32.966Z,99.99
2019-05-17T02:21:32.780Z,99.99
2019-05-17T02:22:32.856Z,99.99
2019-05-17T02:23:32.805Z,99.99
2019-05-17T02:24:32.820Z,99.99
2019-05-17T02:25:32.830Z,99.99
2019-05-17T02:26:32.844Z,99.99
2019-05-17T02:27:38.232Z,99.99
2019-05-17T02:28:32.871Z,99.99
2019-05-17T02:29:32.900Z,99.99
2019-05-17T02:30:33.746Z,99.99
2019-05-17T02:31:33.026Z,99.99
2019-05-17T02:32:33.642Z,99.99
2019-05-17T02:33:33.370Z,99.99
2019-05-17T02:34:33.738Z,99.99
2019-05-17T02:36:33.389Z,99.99
2019-05-17T02:37:33.540Z,99.99
2019-05-17T02:38:33.587Z,99.99
2019-05-17T02:39:33.009Z,99.99
2019-05-17T02:40:34.509Z,99.99
2019-05-17T02:41:33.366Z,99.99
2019-05-17T02:42:33.520Z,99.99
2019-05-17T02:43:33.605Z,99.99
2019-05-17T02:44:33.774Z,99.99
2019-05-17T02:45:33.896Z,99.99
2019-05-17T02:46:33.865Z,99.99
2019-05-17T02:47:33.822Z,99.99
2019-05-17T02:48:34.062Z,99.99
2019-05-17T02:51:33.883Z,99.99
2019-05-17T02:52:33.309Z,99.99
2019-05-17T02:53:33.831Z,99.99
2019-05-17T02:54:33.246Z,99.99
2019-05-17T02:55:33.215Z,99.99
2019-05-17T02:56:33.286Z,99.99
2019-05-17T02:57:34.707Z,99.99
2019-05-17T02:58:33.452Z,99.99
2019-05-17T02:59:33.412Z,99.99
2019-05-17T03:00:34.302Z,99.99
2019-05-17T03:01:33.598Z,99.99
2019-05-17T03:02:34.160Z,99.99
2019-05-17T03:03:34.026Z,99.99
2019-05-17T03:04:33.323Z,99.99
2019-05-17T03:06:33.429Z,99.99
2019-05-17T03:07:33.364Z,99.99
2019-05-17T03:08:34.380Z,99.99
2019-05-17T03:09:33.965Z,99.99
2019-05-17T03:11:33.612Z,99.99
2019-05-17T03:12:33.436Z,99.99
2019-05-17T03:14:33.683Z,99.99
2019-05-17T03:15:33.600Z,99.99
2019-05-17T03:16:34.010Z,99.99
2019-05-17T03:17:34.020Z,99.99
2019-05-17T03:18:33.853Z,99.99
2019-05-17T03:20:33.533Z,99.99
2019-05-17T03:21:33.975Z,99.99
2019-05-17T03:22:33.553Z,99.99
2019-05-17T03:23:33.733Z,99.99
2019-05-17T03:24:33.566Z,99.99
2019-05-17T03:25:33.981Z,99.99
2019-05-17T03:26:33.624Z,99.99
2019-05-17T03:27:34.072Z,99.99
2019-05-17T03:28:34.270Z,99.99
2019-05-17T03:29:33.870Z,99.99
2019-05-17T03:30:37.541Z,99.99
2019-05-17T03:31:41.976Z,99.99
2019-05-17T03:33:35.805Z,99.99
2019-05-17T03:37:37.706Z,99.99
2019-05-17T03:38:33.805Z,99.99
2019-05-17T03:41:01.393Z,99.99
2019-05-17T03:41:34.301Z,99.99
2019-05-17T03:43:35.190Z,99.99
2019-05-17T03:44:33.854Z,99.99
2019-05-17T03:45:34.415Z,99.99
2019-05-17T03:46:34.038Z,99.99
2019-05-17T03:47:34.103Z,99.99
2019-05-17T03:48:34.379Z,99.99
2019-05-17T03:49:34.429Z,99.99
2019-05-17T03:50:34.042Z,99.99
2019-05-17T03:51:33.893Z,99.99
2019-05-17T03:52:34.300Z,99.99
2019-05-17T03:53:33.920Z,99.99
2019-05-17T03:54:33.936Z,99.99
2019-05-17T03:55:34.662Z,99.99
2019-05-17T03:56:33.953Z,99.99
2019-05-17T03:58:34.024Z,99.99
2019-05-17T03:59:34.025Z,99.99
2019-05-17T04:01:34.022Z,99.99
2019-05-17T04:02:34.043Z,99.99
2019-05-17T04:03:35.539Z,99.99
2019-05-17T04:04:34.050Z,99.99
2019-05-17T04:05:34.086Z,99.99
2019-05-17T04:06:34.338Z,99.99
2019-05-17T04:07:34.123Z,99.99
2019-05-17T04:08:34.099Z,99.99
2019-05-17T04:09:37.622Z,99.99
2019-05-17T04:11:36.561Z,99.99
2019-05-17T04:12:34.171Z,99.99
2019-05-17T04:13:34.181Z,99.99
2019-05-17T04:14:34.276Z,99.99
2019-05-17T04:15:34.252Z,99.99
2019-05-17T04:16:34.446Z,99.99
2019-05-17T04:17:34.609Z,99.99
2019-05-17T04:18:34.270Z,99.99
2019-05-17T04:19:34.260Z,99.99
2019-05-17T04:20:34.246Z,99.99
2019-05-17T04:21:34.499Z,99.99
2019-05-17T04:22:34.279Z,99.99
2019-05-17T04:23:34.551Z,99.99
2019-05-17T04:24:34.349Z,99.99
2019-05-17T04:25:38.259Z,99.99
2019-05-17T04:26:34.425Z,99.99
2019-05-17T04:27:34.366Z,99.99
2019-05-17T04:28:34.498Z,99.99
2019-05-17T04:29:34.462Z,99.99
2019-05-17T04:30:34.493Z,99.99
2019-05-17T04:31:35.154Z,99.99
2019-05-17T04:32:34.434Z,99.99
2019-05-17T04:33:34.827Z,99.99
2019-05-17T04:34:34.473Z,99.99
2019-05-17T04:35:34.445Z,99.99
2019-05-17T04:36:34.635Z,99.99
2019-05-17T04:37:38.281Z,99.99
2019-05-17T04:38:34.472Z,99.99
2019-05-17T04:39:35.204Z,99.99
2019-05-17T04:40:34.533Z,99.99
2019-05-17T04:41:45.035Z,99.99
2019-05-17T04:42:35.778Z,99.99
2019-05-17T04:43:34.582Z,99.99
2019-05-17T04:44:34.814Z,99.99
2019-05-17T04:45:35.326Z,99.99
2019-05-17T04:46:34.716Z,99.99
2019-05-17T04:47:34.850Z,99.99
2019-05-17T04:48:35.305Z,99.99
2019-05-17T04:49:34.620Z,99.99
2019-05-17T04:50:34.624Z,99.99
2019-05-17T04:51:35.563Z,99.99
2019-05-17T04:52:34.808Z,99.99
2019-05-17T04:53:34.720Z,99.99
2019-05-17T04:54:34.669Z,99.99
2019-05-17T04:55:35.657Z,99.99
2019-05-17T04:56:34.724Z,99.99
2019-05-17T04:57:34.710Z,99.99
2019-05-17T04:58:34.939Z,99.99
2019-05-17T04:59:34.882Z,99.99
2019-05-17T05:00:35.113Z,99.99
2019-05-17T05:01:36.629Z,99.99
2019-05-17T05:02:34.815Z,99.99
2019-05-17T05:03:34.860Z,99.99
2019-05-17T05:04:38.253Z,99.99
2019-05-17T05:05:34.839Z,99.99
2019-05-17T05:06:35.034Z,99.99
2019-05-17T05:07:34.837Z,99.99
2019-05-17T05:08:34.992Z,99.99
2019-05-17T05:09:34.895Z,99.99
2019-05-17T05:10:38.482Z,99.99
2019-05-17T05:11:50.399Z,99.99
2019-05-17T05:12:34.934Z,99.99
2019-05-17T05:13:34.965Z,99.99
2019-05-17T05:14:35.000Z,99.99
2019-05-17T05:15:34.957Z,99.99
2019-05-17T05:16:34.975Z,99.99
2019-05-17T05:17:35.117Z,99.99
2019-05-17T05:18:35.003Z,99.99
2019-05-17T05:20:35.000Z,99.99
2019-05-17T05:21:35.028Z,99.99
2019-05-17T05:22:35.031Z,99.99
2019-05-17T05:23:35.049Z,99.99
2019-05-17T05:24:35.109Z,99.99
2019-05-17T05:25:35.074Z,99.99
2019-05-17T05:26:35.316Z,99.99
2019-05-17T05:27:35.198Z,99.99
2019-05-17T05:28:35.101Z,99.99
2019-05-17T05:29:35.150Z,99.99
2019-05-17T05:30:35.397Z,99.99
2019-05-17T05:31:35.234Z,99.99
2019-05-17T05:32:35.317Z,99.99
2019-05-17T05:33:35.188Z,99.99
2019-05-17T05:34:35.181Z,99.99
2019-05-17T05:35:35.188Z,99.99
2019-05-17T05:36:35.230Z,99.99
2019-05-17T05:37:35.219Z,99.99
2019-05-17T05:38:35.245Z,99.99
2019-05-17T05:39:35.295Z,99.99
2019-05-17T05:40:35.327Z,99.99
2019-05-17T05:42:35.357Z,99.99
2019-05-17T05:43:35.322Z,99.99
2019-05-17T05:44:35.308Z,99.99
2019-05-17T05:45:35.327Z,99.99
2019-05-17T05:46:35.383Z,99.99
2019-05-17T05:47:35.353Z,99.99
2019-05-17T05:48:35.412Z,99.99
2019-05-17T05:49:35.392Z,99.99
2019-05-17T05:50:35.383Z,99.99
2019-05-17T05:51:35.396Z,99.99
2019-05-17T05:53:35.448Z,99.99
2019-05-17T05:54:35.435Z,99.99
2019-05-17T05:55:35.499Z,99.99
2019-05-17T05:56:35.573Z,99.99
2019-05-17T05:57:35.518Z,99.99
2019-05-17T05:58:35.488Z,99.99
2019-05-17T05:59:35.604Z,99.99
2019-05-17T06:00:35.646Z,99.99
2019-05-17T06:01:35.521Z,99.99
2019-05-17T06:02:35.540Z,99.99
2019-05-17T06:03:35.538Z,99.99
2019-05-17T06:04:35.552Z,99.99
2019-05-17T06:05:35.668Z,99.99
2019-05-17T06:06:35.575Z,99.99
2019-05-17T06:07:35.594Z,99.99
2019-05-17T06:08:35.651Z,99.99
2019-05-17T06:09:35.615Z,99.99
2019-05-17T06:10:35.642Z,99.99
2019-05-17T06:11:35.654Z,99.99
2019-05-17T06:12:35.663Z,99.99
2019-05-17T06:13:35.800Z,99.99
2019-05-17T06:14:35.680Z,99.99
2019-05-17T06:15:35.706Z,99.99
2019-05-17T06:16:35.721Z,99.99
2019-05-17T06:17:35.719Z,99.99
2019-05-17T06:18:35.751Z,99.99
2019-05-17T06:19:35.744Z,99.99
2019-05-17T06:20:35.767Z,99.99
2019-05-17T06:21:35.776Z,99.99
2019-05-17T06:22:35.783Z,99.99
2019-05-17T06:23:35.799Z,99.99
2019-05-17T06:24:35.824Z,99.99
2019-05-17T06:25:35.827Z,99.99
2019-05-17T06:26:35.836Z,99.99
2019-05-17T06:27:35.850Z,99.99
2019-05-17T06:28:35.969Z,99.99
2019-05-17T06:29:35.886Z,99.99
2019-05-17T06:30:36.043Z,99.99
2019-05-17T06:31:37.112Z,99.99
2019-05-17T06:33:36.489Z,99.99
2019-05-17T06:35:36.765Z,99.99
2019-05-17T06:36:36.067Z,99.99
2019-05-17T06:38:36.024Z,99.99
2019-05-17T06:39:36.633Z,99.99
2019-05-17T06:40:36.028Z,99.99
2019-05-17T06:41:36.336Z,99.99
2019-05-17T06:42:41.113Z,99.99
2019-05-17T06:43:38.501Z,99.99
2019-05-17T06:46:36.100Z,99.99
2019-05-17T06:49:36.152Z,99.99
2019-05-17T06:50:36.163Z,99.99
2019-05-17T06:51:36.222Z,99.99
2019-05-17T06:52:36.235Z,99.99
2019-05-17T06:55:36.275Z,99.99
2019-05-17T06:56:36.252Z,99.99
2019-05-17T06:57:36.605Z,99.99
2019-05-17T06:58:36.259Z,99.99
2019-05-17T06:59:36.300Z,99.99
2019-05-17T07:00:36.362Z,99.99
2019-05-17T07:01:36.471Z,99.99
2019-05-17T07:02:36.343Z,99.99
2019-05-17T07:03:36.358Z,99.99
2019-05-17T07:04:36.345Z,99.99
2019-05-17T07:05:36.349Z,99.99
2019-05-17T07:06:36.371Z,99.99
2019-05-17T07:07:36.448Z,99.99
2019-05-17T07:08:36.388Z,99.99
2019-05-17T07:09:36.399Z,99.99
2019-05-17T07:10:36.417Z,99.99
2019-05-17T07:11:36.439Z,99.99
2019-05-17T07:12:36.501Z,99.99
2019-05-17T07:13:36.461Z,99.99
2019-05-17T07:14:36.474Z,99.99
2019-05-17T07:15:44.775Z,99.99
2019-05-17T07:16:36.499Z,99.99
2019-05-17T07:17:36.532Z,99.99
2019-05-17T07:18:36.743Z,99.99
2019-05-17T07:19:36.541Z,99.99
2019-05-17T07:20:36.555Z,99.99
2019-05-17T07:21:36.564Z,99.99
2019-05-17T07:22:36.587Z,99.99
2019-05-17T07:23:36.606Z,99.99
2019-05-17T07:24:36.611Z,99.99
2019-05-17T07:25:39.742Z,99.99
2019-05-17T07:26:39.241Z,99.99
2019-05-17T07:27:41.451Z,99.99
2019-05-17T07:28:37.480Z,99.99
2019-05-17T07:29:36.669Z,99.99
2019-05-17T07:30:36.697Z,99.99
2019-05-17T07:31:36.701Z,99.99
2019-05-17T07:32:36.761Z,99.99
2019-05-17T07:33:36.825Z,99.99
2019-05-17T07:34:36.896Z,99.99
2019-05-17T07:35:36.758Z,99.99
2019-05-17T07:36:36.763Z,99.99
2019-05-17T07:37:36.777Z,99.99
2019-05-17T07:38:36.790Z,99.99
2019-05-17T07:39:39.284Z,99.99
2019-05-17T07:40:36.825Z,99.99
2019-05-17T07:41:36.864Z,99.99
2019-05-17T07:42:39.478Z,99.76
2019-05-17T07:43:36.877Z,99.99
2019-05-17T07:44:37.000Z,99.99
2019-05-17T07:45:36.886Z,99.37
2019-05-17T07:46:36.908Z,99.99
2019-05-17T07:47:36.950Z,99.99
2019-05-17T07:48:36.941Z,99.99
2019-05-17T07:49:36.957Z,99.99
2019-05-17T07:50:36.961Z,99.99
2019-05-17T07:51:39.437Z,99.99
2019-05-17T07:52:39.561Z,99.62
2019-05-17T07:53:39.888Z,99.99
2019-05-17T07:54:37.010Z,96.37
2019-05-17T07:55:37.023Z,94.74
2019-05-17T07:56:39.998Z,95.03
2019-05-17T07:57:37.059Z,93.88
2019-05-17T07:58:37.067Z,94.74
2019-05-17T07:59:39.592Z,95.07
2019-05-17T08:00:51.233Z,93.88
2019-05-17T08:01:37.208Z,94.07
2019-05-17T08:02:39.835Z,93.88
2019-05-17T08:03:37.141Z,94.46
2019-05-17T08:04:37.177Z,94.36
2019-05-17T08:05:37.162Z,95.22
2019-05-17T08:06:39.563Z,95.98
2019-05-17T08:07:39.579Z,97.03
2019-05-17T08:08:37.251Z,96.17
2019-05-17T08:09:37.235Z,96.03
2019-05-17T08:10:37.235Z,97.18
2019-05-17T08:11:39.522Z,96.22
2019-05-17T08:12:38.034Z,96.80
2019-05-17T08:13:39.685Z,96.51
2019-05-17T08:14:39.884Z,96.08
2019-05-17T08:15:39.519Z,95.27
2019-05-17T08:16:39.380Z,95.84
2019-05-17T08:17:39.484Z,95.84
2019-05-17T08:18:37.430Z,95.08
2019-05-17T08:19:37.361Z,95.84
2019-05-17T08:20:40.115Z,95.17
2019-05-17T08:21:39.599Z,94.70
2019-05-17T08:22:39.809Z,95.94
2019-05-17T08:23:39.842Z,96.32
2019-05-17T08:24:39.807Z,96.98
2019-05-17T08:25:49.602Z,97.37
2019-05-17T08:26:37.489Z,96.03
2019-05-17T08:27:40.191Z,95.75
2019-05-17T08:28:40.210Z,96.32
2019-05-17T08:29:40.287Z,96.61
2019-05-17T08:30:40.552Z,96.42
2019-05-17T08:31:37.627Z,97.03
2019-05-17T08:32:40.083Z,98.56
2019-05-17T08:34:39.968Z,99.23
2019-05-17T08:36:37.603Z,99.99
2019-05-17T08:37:41.844Z,99.85
2019-05-17T08:38:39.370Z,99.99
2019-05-17T08:39:39.795Z,99.99
2019-05-17T08:40:40.079Z,99.99
2019-05-17T08:41:40.245Z,99.99
2019-05-17T08:43:45.354Z,99.99
2019-05-17T08:44:39.390Z,99.99
2019-05-17T08:45:40.749Z,99.99
2019-05-17T08:46:39.523Z,99.99
2019-05-17T08:47:39.645Z,99.99
2019-05-17T08:48:39.998Z,99.99
2019-05-17T08:49:40.173Z,99.99
2019-05-17T08:50:39.990Z,99.99
2019-05-17T08:51:39.677Z,99.57
2019-05-17T08:52:40.308Z,99.28
2019-05-17T08:53:39.751Z,99.28
2019-05-17T08:54:42.555Z,99.95
2019-05-17T08:55:40.557Z,99.99
2019-05-17T08:56:40.037Z,99.99
2019-05-17T08:57:39.933Z,99.99
2019-05-17T08:58:40.163Z,99.99
2019-05-17T08:59:40.228Z,99.99
2019-05-17T09:00:40.762Z,99.99
2019-05-17T09:01:39.249Z,99.99
2019-05-17T09:02:40.475Z,99.99
2019-05-17T09:03:37.964Z,99.99
2019-05-17T09:04:40.341Z,99.62
2019-05-17T09:05:38.016Z,99.08
2019-05-17T09:06:39.710Z,99.99
2019-05-17T09:07:40.256Z,99.99
2019-05-17T09:08:40.386Z,99.99
2019-05-17T09:09:39.464Z,99.99
2019-05-17T09:10:40.476Z,99.99
2019-05-17T09:11:39.543Z,99.99
2019-05-17T09:12:40.569Z,99.99
2019-05-17T09:13:40.111Z,99.99
2019-05-17T09:14:40.039Z,99.99
2019-05-17T09:15:39.909Z,99.99
2019-05-17T09:16:40.065Z,99.99
2019-05-17T09:17:39.753Z,99.99
2019-05-17T09:18:39.429Z,99.99
2019-05-17T09:19:39.461Z,99.99
2019-05-17T09:20:40.247Z,99.99
2019-05-17T09:21:39.719Z,99.99
2019-05-17T09:22:39.626Z,99.99
2019-05-17T09:23:39.675Z,99.99
2019-05-17T09:24:39.644Z,99.99
2019-05-17T09:25:39.813Z,99.99
2019-05-17T09:26:39.925Z,99.99
2019-05-17T09:27:40.025Z,99.99
2019-05-17T09:29:40.394Z,99.99
2019-05-17T09:31:40.409Z,99.99
2019-05-17T09:32:40.363Z,99.99
2019-05-17T09:33:40.430Z,99.99
2019-05-17T09:34:40.258Z,99.99
2019-05-17T09:35:40.676Z,99.99
2019-05-17T09:36:40.652Z,99.99
2019-05-17T09:37:41.006Z,99.99
2019-05-17T09:38:40.397Z,99.99
2019-05-17T09:39:40.146Z,99.99
2019-05-17T09:40:40.321Z,99.99
2019-05-17T09:41:39.741Z,99.99
2019-05-17T09:42:41.260Z,99.99
2019-05-17T09:43:40.242Z,99.99
2019-05-17T09:44:40.435Z,99.90
2019-05-17T09:45:40.325Z,99.99
2019-05-17T09:46:39.602Z,99.99
2019-05-17T09:47:39.741Z,97.18
2019-05-17T09:48:39.686Z,96.61
2019-05-17T09:49:39.493Z,95.32
2019-05-17T09:51:39.757Z,93.69
2019-05-17T09:52:40.642Z,93.02
2019-05-17T09:53:40.152Z,92.16
2019-05-17T09:54:44.807Z,91.68
2019-05-17T09:56:39.515Z,93.84
2019-05-17T09:57:40.875Z,93.84
2019-05-17T09:58:39.640Z,93.65
2019-05-17T09:59:40.571Z,94.12
2019-05-17T10:00:38.739Z,94.07
2019-05-17T10:01:39.425Z,94.27
2019-05-17T10:02:40.140Z,95.12
2019-05-17T10:03:39.796Z,95.22
2019-05-17T10:04:39.504Z,94.84
2019-05-17T10:05:40.662Z,94.74
2019-05-17T10:06:40.093Z,94.27
2019-05-17T10:07:40.400Z,94.74
2019-05-17T10:08:39.357Z,96.08
2019-05-17T10:09:40.049Z,95.03
2019-05-17T10:10:40.171Z,95.32
2019-05-17T10:11:40.011Z,97.03
2019-05-17T10:12:40.417Z,98.57
2019-05-17T10:13:38.919Z,99.33
2019-05-17T10:14:38.947Z,99.33
2019-05-17T10:15:40.866Z,98.66
2019-05-17T10:16:38.992Z,99.14
2019-05-17T10:17:38.996Z,99.52
2019-05-17T10:18:40.087Z,98.47
2019-05-17T10:19:40.171Z,98.75
2019-05-17T10:20:39.886Z,98.57
2019-05-17T10:21:39.927Z,98.18
2019-05-17T10:22:40.136Z,97.94
2019-05-17T10:23:40.655Z,98.57
2019-05-17T10:24:42.262Z,98.66
2019-05-17T10:25:39.974Z,98.94
2019-05-17T10:26:39.115Z,98.47
2019-05-17T10:27:40.736Z,98.18
2019-05-17T10:28:39.986Z,98.28
2019-05-17T10:29:39.520Z,98.66
2019-05-17T10:30:39.773Z,98.85
2019-05-17T10:31:39.857Z,98.66
2019-05-17T10:33:40.080Z,98.85
2019-05-17T10:34:40.105Z,98.08
2019-05-17T10:35:40.601Z,97.47
2019-05-17T10:36:40.113Z,98.85
2019-05-17T10:37:40.676Z,98.85
2019-05-17T10:38:39.616Z,96.94
2019-05-17T10:39:41.619Z,96.37
2019-05-17T10:40:40.885Z,95.27
2019-05-17T10:41:40.583Z,93.65
2019-05-17T10:42:39.822Z,92.50
2019-05-17T10:43:39.402Z,92.45
2019-05-17T10:44:46.608Z,92.83
2019-05-17T10:45:40.136Z,91.39
2019-05-17T10:46:40.656Z,90.63
2019-05-17T10:47:39.805Z,90.53
2019-05-17T10:48:41.055Z,90.82
2019-05-17T10:49:40.121Z,90.25
2019-05-17T10:50:40.783Z,90.20
2019-05-17T10:51:40.271Z,92.16
2019-05-17T10:52:40.994Z,92.83
2019-05-17T10:53:40.251Z,91.39
2019-05-17T10:54:40.262Z,91.88
2019-05-17T10:55:39.855Z,91.11
2019-05-17T10:56:39.515Z,91.39
2019-05-17T10:57:40.005Z,91.68
2019-05-17T10:58:40.018Z,91.39
2019-05-17T10:59:39.584Z,90.63
2019-05-17T11:00:41.249Z,91.16
2019-05-17T11:01:39.645Z,92.88
2019-05-17T11:02:39.786Z,93.55
2019-05-17T11:03:39.889Z,93.36
2019-05-17T11:04:40.289Z,93.79
2019-05-17T11:05:40.217Z,94.12
2019-05-17T11:06:39.976Z,95.07
2019-05-17T11:07:39.668Z,95.17
2019-05-17T11:08:39.784Z,95.65
2019-05-17T11:09:40.430Z,95.51
2019-05-17T11:10:39.762Z,94.65
2019-05-17T11:11:39.750Z,95.17
2019-05-17T11:12:39.765Z,94.79
2019-05-17T11:13:39.795Z,95.36
2019-05-17T11:14:50.745Z,96.22
2019-05-17T11:15:39.810Z,97.18
2019-05-17T11:16:39.800Z,96.70
2019-05-17T11:17:39.812Z,96.42
2019-05-17T11:18:39.869Z,97.08
2019-05-17T11:19:39.837Z,97.42
2019-05-17T11:20:40.405Z,98.37
2019-05-17T11:21:39.869Z,98.18
2019-05-17T11:22:39.872Z,98.52
2019-05-17T11:23:39.902Z,97.56
2019-05-17T11:24:39.911Z,96.17
2019-05-17T11:25:45.358Z,96.94
2019-05-17T11:26:39.934Z,98.08
2019-05-17T11:27:39.994Z,97.37
2019-05-17T11:28:40.047Z,96.99
2019-05-17T11:29:40.039Z,95.27
2019-05-17T11:30:39.991Z,95.36
2019-05-17T11:31:40.087Z,95.94
2019-05-17T11:32:40.222Z,95.84
2019-05-17T11:33:40.216Z,95.84
2019-05-17T11:34:40.121Z,95.94
2019-05-17T11:35:40.059Z,95.65
2019-05-17T11:36:40.065Z,95.27
2019-05-17T11:37:40.074Z,95.75
2019-05-17T11:39:40.143Z,96.84
2019-05-17T11:40:40.116Z,98.18
2019-05-17T11:41:40.158Z,98.94
2019-05-17T11:43:40.455Z,99.95
2019-05-17T11:44:40.172Z,99.19
2019-05-17T11:45:40.663Z,99.38
2019-05-17T11:46:40.209Z,99.38
2019-05-17T11:47:41.078Z,98.80
2019-05-17T11:48:40.231Z,97.08
2019-05-17T11:49:40.301Z,95.94
2019-05-17T11:50:40.307Z,96.32
2019-05-17T11:51:40.268Z,97.94
2019-05-17T11:52:40.280Z,96.80
2019-05-17T11:53:40.298Z,96.22
2019-05-17T11:54:40.307Z,95.84
2019-05-17T11:55:40.326Z,97.56
2019-05-17T11:56:40.518Z,97.08
2019-05-17T11:57:40.353Z,97.47
2019-05-17T11:58:40.589Z,97.66
2019-05-17T11:59:40.492Z,99.48
2019-05-17T12:00:40.397Z,99.99
2019-05-17T12:01:40.405Z,99.99
2019-05-17T12:03:40.445Z,99.66
2019-05-17T12:04:40.510Z,99.95
2019-05-17T12:05:40.456Z,99.99
2019-05-17T12:06:40.474Z,99.99
2019-05-17T12:07:40.484Z,99.99
2019-05-17T12:08:40.512Z,99.99
2019-05-17T12:09:40.513Z,99.99
2019-05-17T12:11:41.660Z,99.99
2019-05-17T12:13:43.526Z,99.99
2019-05-17T12:14:40.798Z,99.99
2019-05-17T12:15:44.747Z,99.99
2019-05-17T12:16:40.621Z,99.99
2019-05-17T12:17:40.652Z,99.99
2019-05-17T12:18:40.701Z,99.99
2019-05-17T12:19:40.707Z,99.99
2019-05-17T12:20:40.849Z,99.43
2019-05-17T12:21:40.768Z,99.99
2019-05-17T12:22:40.908Z,99.99
2019-05-17T12:23:40.708Z,99.14
2019-05-17T12:26:40.782Z,97.66
2019-05-17T12:27:40.890Z,96.89
2019-05-17T12:28:40.969Z,95.94
2019-05-17T12:30:40.822Z,96.13
2019-05-17T12:31:40.933Z,93.98
2019-05-17T12:32:40.865Z,94.26
2019-05-17T12:33:40.926Z,93.88
2019-05-17T12:34:40.880Z,93.50
2019-05-17T12:35:40.884Z,95.22
2019-05-17T12:36:40.992Z,94.12
2019-05-17T12:37:42.497Z,95.17
2019-05-17T12:38:40.971Z,95.56
2019-05-17T12:39:40.986Z,97.85
2019-05-17T12:40:41.637Z,97.18
2019-05-17T12:41:41.021Z,94.12
2019-05-17T12:42:40.991Z,93.45
2019-05-17T12:43:41.067Z,93.74
2019-05-17T12:44:41.075Z,95.27
2019-05-17T12:45:41.027Z,94.89
2019-05-17T12:46:41.036Z,96.42
2019-05-17T12:47:41.235Z,98.90
2019-05-17T12:48:41.073Z,98.76
2019-05-17T12:49:41.098Z,96.27
2019-05-17T12:50:41.101Z,94.45
2019-05-17T12:51:41.187Z,95.61
2019-05-17T12:52:41.125Z,96.37
2019-05-17T12:53:41.167Z,95.89
2019-05-17T12:55:41.285Z,95.89
2019-05-17T12:56:42.766Z,95.61
2019-05-17T12:57:42.074Z,96.08
2019-05-17T12:59:41.230Z,95.79
2019-05-17T13:00:41.313Z,96.56
2019-05-17T13:01:41.557Z,98.38
2019-05-17T13:02:41.322Z,97.90
2019-05-17T13:03:41.349Z,96.94
2019-05-17T13:04:41.337Z,98.09
2019-05-17T13:05:41.390Z,98.76
2019-05-17T13:06:41.363Z,99.99
2019-05-17T13:07:41.400Z,99.77
2019-05-17T13:08:41.425Z,99.99
2019-05-17T13:09:41.424Z,98.19
2019-05-17T13:10:41.393Z,99.99
2019-05-17T13:11:41.406Z,99.15
2019-05-17T13:12:41.415Z,99.99
2019-05-17T13:13:41.680Z,99.99
2019-05-17T13:15:41.706Z,99.99
2019-05-17T13:17:41.498Z,98.05
2019-05-17T13:19:41.540Z,97.95
2019-05-17T13:20:41.732Z,95.75
2019-05-17T13:21:42.132Z,98.19
2019-05-17T13:22:41.578Z,96.51
2019-05-17T13:23:42.058Z,91.67
2019-05-17T13:24:41.587Z,87.84
2019-05-17T13:25:41.603Z,89.37
2019-05-17T13:26:41.620Z,88.37
2019-05-17T13:27:41.634Z,87.70
2019-05-17T13:28:41.793Z,88.37
2019-05-17T13:29:41.745Z,91.43
2019-05-17T13:31:41.783Z,87.70
2019-05-17T13:32:41.754Z,88.37
2019-05-17T13:33:41.733Z,88.27
2019-05-17T13:34:42.621Z,88.70
2019-05-17T13:35:41.954Z,86.49
2019-05-17T13:36:42.187Z,85.82
2019-05-17T13:37:41.793Z,85.63
2019-05-17T13:38:41.802Z,86.11
2019-05-17T13:39:41.832Z,86.68
2019-05-17T13:40:41.841Z,88.02
2019-05-17T13:41:41.874Z,87.07
2019-05-17T13:42:41.898Z,88.93
2019-05-17T13:43:41.889Z,87.68
2019-05-17T13:44:41.971Z,86.92
2019-05-17T13:45:43.951Z,86.77
2019-05-17T13:46:41.940Z,88.73
2019-05-17T13:47:41.945Z,83.54
2019-05-17T13:48:42.489Z,83.36
2019-05-17T13:49:41.983Z,85.18
2019-05-17T13:50:42.054Z,84.31
2019-05-17T13:51:42.010Z,86.18
2019-05-17T13:52:42.021Z,82.76
2019-05-17T13:53:42.046Z,80.27
2019-05-17T13:54:42.052Z,81.04
2019-05-17T13:55:42.077Z,79.11
2019-05-17T13:56:42.089Z,75.65
2019-05-17T13:57:42.106Z,78.40
2019-05-17T13:58:42.132Z,77.21
2019-05-17T13:59:42.132Z,78.45
2019-05-17T14:00:42.151Z,78.75
2019-05-17T14:01:42.181Z,80.15
2019-05-17T14:02:42.193Z,79.86
2019-05-17T14:03:42.196Z,78.70
2019-05-17T14:04:42.218Z,78.96
2019-05-17T14:05:42.232Z,79.38
2019-05-17T14:06:42.251Z,77.90
2019-05-17T14:07:42.294Z,79.44
2019-05-17T14:08:42.398Z,81.64
2019-05-17T14:09:42.290Z,82.27
2019-05-17T14:10:42.565Z,81.51
2019-05-17T14:11:42.383Z,81.89
2019-05-17T14:12:42.344Z,83.19